createdAt,value
2022-10-15T00:01:21.971Z,10.93
2022-10-15T00:03:48.904Z,18.98
2022-10-15T00:06:18.529Z,10.88
2022-10-15T00:08:46.690Z,12.65
2022-10-15T00:11:23.021Z,14.77
2022-10-15T00:13:52.434Z,16.02
2022-10-15T00:16:22.396Z,10.73
2022-10-15T00:18:50.014Z,11.27
2022-10-15T00:21:19.062Z,14.85
2022-10-15T00:23:47.063Z,13.35
2022-10-15T00:26:16.216Z,14.38
2022-10-15T00:28:44.111Z,15.65
2022-10-15T00:31:14.674Z,10.30
2022-10-15T00:33:42.377Z,9.77
2022-10-15T00:36:13.126Z,12.05
2022-10-15T00:38:40.433Z,13.07
2022-10-15T00:41:12.795Z,11.48
2022-10-15T00:43:47.206Z,13.73
2022-10-15T00:46:39.286Z,13.88
2022-10-15T00:49:16.155Z,13.90
2022-10-15T00:51:50.092Z,15.52
2022-10-15T00:54:16.931Z,13.00
2022-10-15T00:56:45.799Z,15.52
2022-10-15T00:59:14.758Z,13.02
2022-10-15T01:01:41.968Z,14.00
2022-10-15T01:04:09.330Z,10.27
2022-10-15T01:06:36.899Z,13.63
2022-10-15T01:09:04.027Z,12.02
2022-10-15T01:11:42.638Z,11.88
2022-10-15T01:14:15.550Z,17.00
2022-10-15T01:16:46.849Z,12.30
2022-10-15T01:19:50.055Z,12.30
2022-10-15T01:22:16.846Z,10.32
2022-10-15T01:25:04.153Z,10.45
2022-10-15T01:27:50.435Z,15.27
2022-10-15T01:30:20.585Z,9.70
2022-10-15T01:33:21.273Z,16.75
2022-10-15T01:35:54.898Z,16.65
2022-10-15T01:38:25.548Z,10.32
2022-10-15T01:41:20.078Z,14.88
2022-10-15T01:44:20.878Z,13.00
2022-10-15T01:47:10.101Z,11.40
2022-10-15T01:49:42.489Z,14.57
2022-10-15T01:52:15.158Z,13.80
2022-10-15T01:54:44.013Z,13.27
2022-10-15T01:57:11.387Z,11.77
2022-10-15T01:59:38.408Z,14.00
2022-10-15T02:02:05.184Z,12.93
2022-10-15T02:04:34.911Z,12.27
2022-10-15T02:07:24.754Z,11.90
2022-10-15T02:10:08.313Z,11.05
2022-10-15T02:12:59.619Z,20.45
2022-10-15T02:15:48.275Z,11.90
2022-10-15T02:18:21.077Z,12.50
2022-10-15T02:21:07.946Z,12.63
2022-10-15T02:23:56.842Z,14.65
2022-10-15T02:26:28.014Z,14.80
2022-10-15T02:28:58.420Z,14.13
2022-10-15T02:31:26.790Z,11.77
2022-10-15T02:33:59.099Z,12.85
2022-10-15T02:36:26.036Z,12.88
2022-10-15T02:38:57.406Z,13.13
2022-10-15T02:41:27.671Z,12.68
2022-10-15T02:43:54.824Z,11.23
2022-10-15T02:46:21.817Z,12.15
2022-10-15T02:48:48.702Z,13.90
2022-10-15T02:51:15.607Z,14.02
2022-10-15T02:53:42.537Z,14.48
2022-10-15T02:56:09.402Z,13.48
2022-10-15T02:58:36.371Z,15.00
2022-10-15T03:01:03.826Z,13.68
2022-10-15T03:03:30.648Z,14.73
2022-10-15T03:05:57.402Z,13.13
2022-10-15T03:08:24.087Z,15.48
2022-10-15T03:10:51.011Z,19.55
2022-10-15T03:13:17.975Z,17.40
2022-10-15T03:15:44.843Z,15.23
2022-10-15T03:18:11.652Z,12.95
2022-10-15T03:20:38.555Z,11.90
2022-10-15T03:23:05.442Z,12.23
2022-10-15T03:25:32.208Z,14.57
2022-10-15T03:27:59.254Z,13.10
2022-10-15T03:30:26.144Z,16.10
2022-10-15T03:32:52.983Z,14.77
2022-10-15T03:35:19.831Z,15.30
2022-10-15T03:37:46.547Z,13.80
2022-10-15T03:40:14.612Z,12.38
2022-10-15T03:42:41.740Z,16.08
2022-10-15T03:45:09.188Z,14.52
2022-10-15T03:47:36.402Z,13.02
2022-10-15T03:50:03.491Z,16.10
2022-10-15T03:52:30.524Z,12.15
2022-10-15T03:54:57.273Z,11.77
2022-10-15T03:57:24.355Z,12.93
2022-10-15T03:59:51.215Z,12.93
2022-10-15T04:02:18.026Z,14.52
2022-10-15T04:04:44.751Z,13.48
2022-10-15T04:07:11.714Z,19.17
2022-10-15T04:09:38.813Z,12.98
2022-10-15T04:12:06.026Z,11.48
2022-10-15T04:14:32.895Z,11.90
2022-10-15T04:16:59.578Z,16.52
2022-10-15T04:19:27.254Z,14.45
2022-10-15T04:21:54.074Z,17.27
2022-10-15T04:24:20.999Z,12.98
2022-10-15T04:26:47.924Z,14.00
2022-10-15T04:29:14.681Z,16.98
2022-10-15T04:31:42.087Z,18.45
2022-10-15T04:34:09.670Z,10.98
2022-10-15T04:36:36.527Z,11.55
2022-10-15T04:39:04.944Z,12.10
2022-10-15T04:41:32.185Z,14.85
2022-10-15T04:43:59.301Z,7.90
2022-10-15T04:46:26.191Z,11.50
2022-10-15T04:48:55.232Z,15.38
2022-10-15T04:51:22.078Z,11.40
2022-10-15T04:53:48.775Z,13.80
2022-10-15T04:56:18.482Z,10.15
2022-10-15T04:58:47.402Z,11.85
2022-10-15T05:01:16.973Z,15.63
2022-10-15T05:03:45.590Z,11.77
2022-10-15T05:06:15.975Z,14.75
2022-10-15T05:08:43.676Z,10.35
2022-10-15T05:11:13.442Z,9.68
2022-10-15T05:13:40.159Z,12.75
2022-10-15T05:16:23.000Z,11.88
2022-10-15T05:18:52.376Z,9.13
2022-10-15T05:21:19.988Z,10.60
2022-10-15T05:23:47.590Z,13.20
2022-10-15T05:26:19.215Z,15.52
2022-10-15T05:28:46.433Z,17.30
2022-10-15T05:31:19.265Z,23.10
2022-10-15T05:33:51.208Z,16.92
2022-10-15T05:36:27.063Z,18.67
2022-10-15T05:38:59.574Z,19.90
2022-10-15T05:41:27.426Z,19.65
2022-10-15T05:43:57.586Z,20.77
2022-10-15T05:46:25.051Z,23.92
2022-10-15T05:48:54.268Z,17.05
2022-10-15T05:51:21.919Z,23.73
2022-10-15T05:53:52.698Z,21.55
2022-10-15T05:56:19.726Z,23.23
2022-10-15T05:58:46.590Z,20.67
2022-10-15T06:01:14.037Z,20.30
2022-10-15T06:03:42.482Z,23.27
2022-10-15T06:06:20.829Z,37.97
2022-10-15T06:08:48.410Z,21.27
2022-10-15T06:11:16.010Z,24.77
2022-10-15T06:13:44.031Z,30.42
2022-10-15T06:16:12.731Z,29.65
2022-10-15T06:18:40.062Z,37.35
2022-10-15T06:21:08.087Z,41.50
2022-10-15T06:23:35.678Z,35.47
2022-10-15T06:26:07.237Z,40.30
2022-10-15T06:28:35.030Z,39.75
2022-10-15T06:31:02.287Z,45.88
2022-10-15T06:33:29.818Z,36.45
2022-10-15T06:36:04.663Z,42.25
2022-10-15T06:38:32.782Z,46.13
2022-10-15T06:41:00.138Z,47.08
2022-10-15T06:43:28.810Z,40.00
2022-10-15T06:46:00.340Z,39.35
2022-10-15T06:48:27.405Z,40.53
2022-10-15T06:50:54.228Z,40.88
2022-10-15T06:53:22.573Z,39.20
2022-10-15T06:55:49.427Z,42.40
2022-10-15T06:58:16.271Z,50.80
2022-10-15T07:00:43.112Z,48.65
2022-10-15T07:03:10.034Z,39.17
2022-10-15T07:05:36.986Z,42.75
2022-10-15T07:08:03.968Z,39.30
2022-10-15T07:10:31.012Z,39.90
2022-10-15T07:13:00.618Z,42.67
2022-10-15T07:15:28.450Z,36.80
2022-10-15T07:17:58.033Z,36.22
2022-10-15T07:20:25.026Z,32.75
2022-10-15T07:22:57.786Z,35.08
2022-10-15T07:25:25.611Z,31.75
2022-10-15T07:27:52.307Z,33.25
2022-10-15T07:30:19.026Z,27.70
2022-10-15T07:32:46.616Z,30.88
2022-10-15T07:35:13.679Z,28.90
2022-10-15T07:37:41.330Z,32.15
2022-10-15T07:40:08.403Z,27.00
2022-10-15T07:42:35.325Z,27.70
2022-10-15T07:45:02.218Z,27.63
2022-10-15T07:47:28.989Z,27.48
2022-10-15T07:49:55.736Z,28.00
2022-10-15T07:52:22.743Z,28.35
2022-10-15T07:54:49.853Z,27.58
2022-10-15T07:57:18.175Z,30.38
2022-10-15T07:59:44.978Z,23.45
2022-10-15T08:02:16.877Z,25.67
2022-10-15T08:04:44.135Z,26.33
2022-10-15T08:07:11.459Z,21.55
2022-10-15T08:09:38.505Z,19.17
2022-10-15T08:12:07.196Z,16.67
2022-10-15T08:14:35.662Z,14.63
2022-10-15T08:17:05.817Z,24.15
2022-10-15T08:19:33.453Z,17.40
2022-10-15T08:22:00.436Z,18.95
2022-10-15T08:24:27.557Z,18.92
2022-10-15T08:26:54.308Z,21.13
2022-10-15T08:29:21.120Z,19.98
2022-10-15T08:31:47.843Z,18.15
2022-10-15T08:34:14.653Z,19.27
2022-10-15T08:36:41.370Z,19.88
2022-10-15T08:39:10.938Z,19.25
2022-10-15T08:41:40.618Z,16.40
2022-10-15T08:44:22.835Z,19.75
2022-10-15T08:46:54.433Z,20.58
2022-10-15T08:49:53.645Z,19.50
2022-10-15T08:52:34.483Z,22.77
2022-10-15T08:55:02.609Z,18.15
2022-10-15T08:57:38.235Z,17.77
2022-10-15T09:00:11.378Z,17.00
2022-10-15T09:03:03.931Z,19.45
2022-10-15T09:05:53.926Z,15.93
2022-10-15T09:08:50.352Z,15.07
2022-10-15T09:11:30.736Z,15.95
2022-10-15T09:13:58.340Z,13.13
2022-10-15T09:16:29.492Z,14.02
2022-10-15T09:18:58.844Z,13.05
2022-10-15T09:21:26.251Z,13.43
2022-10-15T09:23:56.946Z,11.40
2022-10-15T09:27:03.114Z,13.32
2022-10-15T09:29:45.074Z,13.13
2022-10-15T09:33:10.572Z,17.70
2022-10-15T09:35:43.928Z,12.50
2022-10-15T09:38:41.142Z,14.40
2022-10-15T09:41:30.591Z,12.13
2022-10-15T09:43:59.575Z,18.52
2022-10-15T09:46:26.380Z,13.48
2022-10-15T09:49:09.362Z,18.58
2022-10-15T09:51:49.476Z,15.02
2022-10-15T09:54:26.451Z,17.90
2022-10-15T09:56:56.758Z,17.13
2022-10-15T09:59:25.842Z,17.15
2022-10-15T10:02:00.566Z,19.25
2022-10-15T10:04:30.111Z,17.80
2022-10-15T10:07:00.690Z,20.50
2022-10-15T10:09:33.301Z,16.65
2022-10-15T10:12:02.841Z,16.45
2022-10-15T10:15:06.007Z,18.02
2022-10-15T10:17:33.207Z,20.52
2022-10-15T10:20:09.155Z,18.55
2022-10-15T10:22:47.676Z,18.23
2022-10-15T10:25:29.489Z,14.98
2022-10-15T10:28:03.792Z,17.98
2022-10-15T10:30:36.943Z,18.80
2022-10-15T10:33:04.795Z,16.17
2022-10-15T10:35:51.555Z,19.17
2022-10-15T10:38:40.755Z,17.30
2022-10-15T10:41:12.551Z,19.92
2022-10-15T10:43:41.743Z,20.88
2022-10-15T10:46:14.993Z,18.48
2022-10-15T10:48:48.143Z,17.67
2022-10-15T10:51:26.913Z,17.50
2022-10-15T10:53:53.742Z,23.02
2022-10-15T10:56:47.949Z,18.52
2022-10-15T10:59:44.257Z,20.35
2022-10-15T11:02:12.784Z,21.35
2022-10-15T11:04:40.753Z,23.30
2022-10-15T11:07:26.824Z,22.45
2022-10-15T11:10:02.253Z,26.17
2022-10-15T11:12:38.218Z,22.45
2022-10-15T11:15:46.498Z,20.17
2022-10-15T11:18:37.699Z,21.48
2022-10-15T11:21:29.188Z,25.02
2022-10-15T11:24:23.284Z,33.22
2022-10-15T11:27:11.597Z,30.27
2022-10-15T11:30:05.306Z,32.63
2022-10-15T11:33:07.599Z,26.85
2022-10-15T11:35:54.614Z,25.02
2022-10-15T11:38:27.643Z,34.42
2022-10-15T11:41:18.690Z,33.55
2022-10-15T11:43:59.191Z,24.83
2022-10-15T11:46:32.310Z,23.52
2022-10-15T11:49:16.259Z,23.55
2022-10-15T11:52:07.546Z,22.98
2022-10-15T11:54:39.861Z,28.65
2022-10-15T11:57:12.075Z,23.55
2022-10-15T11:59:56.191Z,30.42
2022-10-15T12:02:35.137Z,25.60
2022-10-15T12:05:19.789Z,26.77
2022-10-15T12:07:49.188Z,29.93
2022-10-15T12:10:53.209Z,35.65
2022-10-15T12:13:43.116Z,31.58
2022-10-15T12:16:15.999Z,31.73
2022-10-15T12:19:13.761Z,30.05
2022-10-15T12:21:43.659Z,28.20
2022-10-15T12:24:38.515Z,24.80
2022-10-15T12:27:20.804Z,26.90
2022-10-15T12:29:59.986Z,27.10
2022-10-15T12:32:30.081Z,27.45
2022-10-15T12:35:01.131Z,24.63
2022-10-15T12:37:36.124Z,26.35
2022-10-15T12:42:34.823Z,22.42
2022-10-15T12:45:06.422Z,23.58
2022-10-15T12:47:55.531Z,22.92
2022-10-15T12:50:27.750Z,24.27
2022-10-15T12:53:00.019Z,22.52
2022-10-15T12:55:33.228Z,23.17
2022-10-15T12:58:01.989Z,19.77
2022-10-15T13:00:31.426Z,20.33
2022-10-15T13:03:22.540Z,23.42
2022-10-15T13:05:53.109Z,20.38
2022-10-15T13:08:26.790Z,23.58
2022-10-15T13:10:57.588Z,21.20
2022-10-15T13:13:29.455Z,19.48
2022-10-15T13:15:59.593Z,22.38
2022-10-15T13:18:28.911Z,22.33
2022-10-15T13:20:56.786Z,22.92
2022-10-15T13:23:31.410Z,24.55
2022-10-15T13:26:14.678Z,23.05
2022-10-15T13:28:43.185Z,38.00
2022-10-15T13:31:27.663Z,27.65
2022-10-15T13:34:14.174Z,21.13
2022-10-15T13:36:41.167Z,21.38
2022-10-15T13:39:20.975Z,25.30
2022-10-15T13:41:47.922Z,24.35
2022-10-15T13:44:22.776Z,22.52
2022-10-15T13:46:49.707Z,33.05
2022-10-15T13:49:19.232Z,24.50
2022-10-15T13:51:52.048Z,27.95
2022-10-15T13:54:25.241Z,28.67
2022-10-15T13:56:58.898Z,23.05
2022-10-15T13:59:28.338Z,23.17
2022-10-15T14:02:01.774Z,27.45
2022-10-15T14:04:31.690Z,25.35
2022-10-15T14:07:05.628Z,29.27
2022-10-15T14:09:37.939Z,26.95
2022-10-15T14:12:07.351Z,30.52
2022-10-15T14:14:37.451Z,26.02
2022-10-15T14:17:10.295Z,27.50
2022-10-15T14:19:39.121Z,23.98
2022-10-15T14:22:06.498Z,29.55
2022-10-15T14:24:39.311Z,27.92
2022-10-15T14:27:21.555Z,34.13
2022-10-15T14:29:50.786Z,25.08
2022-10-15T14:32:24.377Z,28.50
2022-10-15T14:34:59.228Z,33.17
2022-10-15T14:37:39.409Z,35.65
2022-10-15T14:40:12.237Z,32.17
2022-10-15T14:43:16.337Z,40.35
2022-10-15T14:45:57.639Z,28.05
2022-10-15T14:48:32.647Z,27.35
2022-10-15T14:51:01.397Z,28.35
2022-10-15T14:53:31.166Z,28.98
2022-10-15T14:56:01.345Z,29.75
2022-10-15T14:58:30.071Z,29.67
2022-10-15T15:01:05.616Z,26.48
2022-10-15T15:03:46.478Z,30.27
2022-10-15T15:06:13.946Z,29.73
2022-10-15T15:08:40.964Z,28.67
2022-10-15T15:11:12.627Z,33.03
2022-10-15T15:13:42.607Z,30.58
2022-10-15T15:16:14.179Z,34.88
2022-10-15T15:18:43.969Z,29.85
2022-10-15T15:21:20.187Z,29.73
2022-10-15T15:23:48.150Z,31.38
2022-10-15T15:26:15.172Z,26.60
2022-10-15T15:28:42.008Z,29.30
2022-10-15T15:31:14.420Z,29.63
2022-10-15T15:33:41.762Z,32.00
2022-10-15T15:36:17.667Z,30.98
2022-10-15T15:38:50.093Z,34.80
2022-10-15T15:41:19.766Z,36.25
2022-10-15T15:43:47.425Z,37.92
2022-10-15T15:46:14.798Z,34.45
2022-10-15T15:48:42.413Z,30.92
2022-10-15T15:51:41.688Z,34.00
2022-10-15T15:54:10.739Z,38.08
2022-10-15T15:56:39.977Z,34.60
2022-10-15T15:59:06.863Z,33.20
2022-10-15T16:01:33.831Z,34.00
2022-10-15T16:04:00.789Z,31.05
2022-10-15T16:06:27.451Z,32.22
2022-10-15T16:08:54.313Z,32.30
2022-10-15T16:11:21.741Z,34.38
2022-10-15T16:13:48.584Z,35.45
2022-10-15T16:16:15.801Z,36.72
2022-10-15T16:18:42.650Z,40.97
2022-10-15T16:21:09.517Z,34.33
2022-10-15T16:23:36.447Z,36.50
2022-10-15T16:26:03.265Z,30.92
2022-10-15T16:28:30.219Z,39.85
2022-10-15T16:31:20.659Z,38.70
2022-10-15T16:33:48.144Z,34.75
2022-10-15T16:36:16.891Z,43.10
2022-10-15T16:38:45.208Z,40.30
2022-10-15T16:41:14.331Z,39.30
2022-10-15T16:43:41.927Z,39.90
2022-10-15T16:46:08.810Z,39.28
2022-10-15T16:48:35.828Z,43.17
2022-10-15T16:51:09.070Z,38.30
2022-10-15T16:53:38.217Z,44.13
2022-10-15T16:56:08.450Z,44.15
2022-10-15T16:58:36.021Z,45.67
2022-10-15T17:01:05.740Z,40.00
2022-10-15T17:03:34.427Z,43.58
2022-10-15T17:06:04.424Z,46.08
2022-10-15T17:08:40.553Z,48.50
2022-10-15T17:11:12.491Z,44.05
2022-10-15T17:13:39.442Z,48.95
2022-10-15T17:16:21.104Z,46.15
2022-10-15T17:18:49.236Z,52.70
2022-10-15T17:21:21.699Z,51.25
2022-10-15T17:23:55.327Z,44.60
2022-10-15T17:26:25.449Z,50.83
2022-10-15T17:28:53.308Z,47.00
2022-10-15T17:31:25.575Z,48.05
2022-10-15T17:34:01.011Z,49.88
2022-10-15T17:36:30.174Z,48.00
2022-10-15T17:39:00.388Z,45.17
2022-10-15T17:41:29.606Z,50.42
2022-10-15T17:43:57.187Z,55.03
2022-10-15T17:46:26.400Z,57.58
2022-10-15T17:48:53.895Z,53.30
2022-10-15T17:51:23.590Z,50.03
2022-10-15T17:53:52.777Z,57.53
2022-10-15T17:56:24.081Z,56.03
2022-10-15T17:58:51.358Z,52.60
2022-10-15T18:01:33.512Z,55.15
2022-10-15T18:04:12.035Z,54.83
2022-10-15T18:06:42.881Z,51.53
2022-10-15T18:09:09.701Z,61.40
2022-10-15T18:11:36.541Z,56.08
2022-10-15T18:14:04.236Z,55.13
2022-10-15T18:16:32.224Z,54.10
2022-10-15T18:18:58.906Z,60.17
2022-10-15T18:21:28.419Z,58.00
2022-10-15T18:23:58.619Z,60.38
2022-10-15T18:26:25.453Z,50.13
2022-10-15T18:28:53.846Z,54.85
2022-10-15T18:31:21.879Z,54.65
2022-10-15T18:33:53.842Z,49.20
2022-10-15T18:36:29.246Z,51.50
2022-10-15T18:38:56.930Z,59.15
2022-10-15T18:41:28.424Z,54.08
2022-10-15T18:43:57.668Z,54.17
2022-10-15T18:46:25.323Z,54.95
2022-10-15T18:48:53.613Z,54.72
2022-10-15T18:51:21.301Z,64.03
2022-10-15T18:53:48.541Z,47.00
2022-10-15T18:56:15.574Z,59.00
2022-10-15T18:58:43.179Z,48.80
2022-10-15T19:01:28.278Z,51.40
2022-10-15T19:03:56.879Z,53.80
2022-10-15T19:06:27.527Z,51.17
2022-10-15T19:08:57.790Z,53.17
2022-10-15T19:11:25.038Z,50.92
2022-10-15T19:13:51.911Z,52.72
2022-10-15T19:16:18.550Z,49.08
2022-10-15T19:18:45.492Z,50.85
2022-10-15T19:21:12.519Z,59.83
2022-10-15T19:23:39.243Z,57.55
2022-10-15T19:26:12.918Z,56.25
2022-10-15T19:28:39.997Z,50.03
2022-10-15T19:31:10.044Z,49.60
2022-10-15T19:33:38.144Z,55.85
2022-10-15T19:36:05.284Z,51.92
2022-10-15T19:38:34.391Z,47.25
2022-10-15T19:41:04.893Z,44.60
2022-10-15T19:43:32.076Z,48.67
2022-10-15T19:46:03.778Z,47.50
2022-10-15T19:48:31.181Z,50.72
2022-10-15T19:51:02.090Z,49.85
2022-10-15T19:53:30.494Z,53.20
2022-10-15T19:56:06.127Z,48.45
2022-10-15T19:58:34.077Z,60.60
2022-10-15T20:01:01.668Z,58.35
2022-10-15T20:03:29.912Z,60.42
2022-10-15T20:05:58.726Z,56.55
2022-10-15T20:08:26.073Z,60.85
2022-10-15T20:10:53.665Z,62.25
2022-10-15T20:13:22.575Z,59.42
2022-10-15T20:15:51.836Z,61.90
2022-10-15T20:18:20.479Z,66.05
2022-10-15T20:20:48.290Z,58.03
2022-10-15T20:23:17.261Z,60.90
2022-10-15T20:25:45.268Z,60.88
2022-10-15T20:28:13.819Z,64.05
2022-10-15T20:30:41.462Z,61.67
2022-10-15T20:33:09.414Z,73.50
2022-10-15T20:35:37.446Z,65.30
2022-10-15T20:38:05.124Z,59.22
2022-10-15T20:40:32.511Z,64.10
2022-10-15T20:42:59.405Z,67.95
2022-10-15T20:45:31.447Z,69.60
2022-10-15T20:47:58.590Z,65.22
2022-10-15T20:50:30.188Z,66.43
2022-10-15T20:52:58.076Z,60.83
2022-10-15T20:55:25.108Z,56.75
2022-10-15T20:57:52.349Z,63.88
2022-10-15T21:00:19.560Z,61.85
2022-10-15T21:02:46.519Z,62.15
2022-10-15T21:05:13.251Z,66.60
2022-10-15T21:07:40.108Z,66.90
2022-10-15T21:10:07.165Z,71.97
2022-10-15T21:12:34.050Z,59.00
2022-10-15T21:15:00.909Z,61.20
2022-10-15T21:17:27.964Z,54.15
2022-10-15T21:19:54.909Z,65.40
2022-10-15T21:22:22.029Z,59.83
2022-10-15T21:24:48.898Z,62.05
2022-10-15T21:27:15.786Z,64.00
2022-10-15T21:29:45.050Z,59.50
2022-10-15T21:32:11.891Z,61.65
2022-10-15T21:37:05.383Z,51.65
2022-10-15T21:39:32.330Z,57.35
2022-10-15T21:41:59.372Z,59.72
2022-10-15T21:44:26.124Z,54.40
2022-10-15T21:46:52.926Z,54.92
2022-10-15T21:49:19.767Z,62.10
2022-10-15T21:51:46.723Z,56.63
2022-10-15T21:54:13.498Z,58.03
2022-10-15T21:56:40.287Z,48.85
2022-10-15T21:59:07.163Z,59.45
2022-10-15T22:01:39.893Z,59.00
2022-10-15T22:04:09.212Z,50.03
2022-10-15T22:06:40.122Z,49.38
2022-10-15T22:09:08.430Z,54.83
2022-10-15T22:11:37.614Z,46.42
2022-10-15T22:14:06.813Z,48.03
2022-10-15T22:16:36.876Z,49.85
2022-10-15T22:19:04.951Z,49.67
2022-10-15T22:21:35.242Z,46.75
2022-10-15T22:24:08.507Z,42.58
2022-10-15T22:26:38.535Z,43.55
2022-10-15T22:29:07.138Z,41.35
2022-10-15T22:31:34.437Z,44.60
2022-10-15T22:34:01.459Z,33.55
2022-10-15T22:36:30.488Z,41.55
2022-10-15T22:39:06.228Z,35.70
2022-10-15T22:41:39.849Z,36.20
2022-10-15T22:44:08.450Z,41.58
2022-10-15T22:46:37.507Z,31.92
2022-10-15T22:49:06.436Z,41.08
2022-10-15T22:51:35.653Z,34.95
2022-10-15T22:54:02.514Z,38.28
2022-10-15T22:56:30.028Z,34.08
2022-10-15T22:58:58.122Z,32.88
2022-10-15T23:01:27.658Z,27.67
2022-10-15T23:03:57.235Z,28.95
2022-10-15T23:06:24.827Z,27.52
2022-10-15T23:08:51.936Z,27.77
2022-10-15T23:11:23.272Z,31.23
2022-10-15T23:14:02.622Z,32.55
2022-10-15T23:16:32.007Z,28.23
2022-10-15T23:19:01.311Z,27.70
2022-10-15T23:21:37.463Z,27.33
2022-10-15T23:24:05.347Z,26.85
2022-10-15T23:26:32.240Z,30.70
2022-10-15T23:29:01.110Z,25.02
2022-10-15T23:31:32.475Z,20.77
2022-10-15T23:34:00.461Z,23.70
2022-10-15T23:36:29.328Z,22.98
2022-10-15T23:38:58.868Z,19.17
2022-10-15T23:41:26.770Z,18.17
2022-10-15T23:43:53.836Z,18.85
2022-10-15T23:46:21.257Z,23.42
2022-10-15T23:48:48.474Z,17.63
2022-10-15T23:51:20.645Z,14.52
2022-10-15T23:53:48.237Z,16.70
2022-10-15T23:56:15.335Z,17.00
2022-10-15T23:58:42.418Z,20.25
